sensor_id;sensor_type;location;lat;lon;timestamp;P1;durP1;ratioP1;P2;durP2;ratioP2
11334;SDS011;5722;42.620;23.374;2023-03-03T00:01:11;4.03;;;3.67;;
11334;SDS011;5722;42.620;23.374;2023-03-03T00:03:40;4.17;;;3.77;;
11334;SDS011;5722;42.620;23.374;2023-03-03T00:06:13;4.23;;;3.83;;
11334;SDS011;5722;42.620;23.374;2023-03-03T00:08:43;4.07;;;3.73;;
11334;SDS011;5722;42.620;23.374;2023-03-03T00:11:21;4.13;;;3.73;;
11334;SDS011;5722;42.620;23.374;2023-03-03T00:13:50;4.20;;;3.80;;
11334;SDS011;5722;42.620;23.374;2023-03-03T00:16:34;4.17;;;3.77;;
11334;SDS011;5722;42.620;23.374;2023-03-03T00:19:06;4.83;;;4.30;;
11334;SDS011;5722;42.620;23.374;2023-03-03T00:21:50;5.00;;;4.50;;
11334;SDS011;5722;42.620;23.374;2023-03-03T00:24:19;5.20;;;4.50;;
11334;SDS011;5722;42.620;23.374;2023-03-03T00:26:50;4.87;;;4.37;;
11334;SDS011;5722;42.620;23.374;2023-03-03T00:29:28;5.50;;;4.60;;
11334;SDS011;5722;42.620;23.374;2023-03-03T00:31:58;5.63;;;5.03;;
11334;SDS011;5722;42.620;23.374;2023-03-03T00:34:27;5.47;;;4.77;;
11334;SDS011;5722;42.620;23.374;2023-03-03T00:37:00;4.53;;;4.07;;
11334;SDS011;5722;42.620;23.374;2023-03-03T00:39:28;4.10;;;3.70;;
11334;SDS011;5722;42.620;23.374;2023-03-03T00:41:56;4.60;;;4.10;;
11334;SDS011;5722;42.620;23.374;2023-03-03T00:44:30;4.97;;;3.50;;
11334;SDS011;5722;42.620;23.374;2023-03-03T00:47:09;3.20;;;2.90;;
11334;SDS011;5722;42.620;23.374;2023-03-03T00:49:39;3.83;;;3.23;;
11334;SDS011;5722;42.620;23.374;2023-03-03T00:52:11;4.07;;;3.70;;
11334;SDS011;5722;42.620;23.374;2023-03-03T00:54:41;3.30;;;3.00;;
11334;SDS011;5722;42.620;23.374;2023-03-03T00:57:19;4.37;;;3.97;;
11334;SDS011;5722;42.620;23.374;2023-03-03T00:59:46;3.90;;;3.50;;
11334;SDS011;5722;42.620;23.374;2023-03-03T01:02:14;4.63;;;4.00;;
11334;SDS011;5722;42.620;23.374;2023-03-03T01:04:42;6.07;;;4.73;;
11334;SDS011;5722;42.620;23.374;2023-03-03T01:07:12;5.40;;;4.47;;
11334;SDS011;5722;42.620;23.374;2023-03-03T01:09:40;4.50;;;4.10;;
11334;SDS011;5722;42.620;23.374;2023-03-03T01:12:10;4.93;;;4.17;;
11334;SDS011;5722;42.620;23.374;2023-03-03T01:14:45;4.47;;;3.90;;
11334;SDS011;5722;42.620;23.374;2023-03-03T01:17:19;4.63;;;4.10;;
11334;SDS011;5722;42.620;23.374;2023-03-03T01:19:52;4.67;;;4.10;;
11334;SDS011;5722;42.620;23.374;2023-03-03T01:22:25;4.70;;;4.13;;
11334;SDS011;5722;42.620;23.374;2023-03-03T01:24:53;4.70;;;4.20;;
11334;SDS011;5722;42.620;23.374;2023-03-03T01:27:23;5.30;;;4.43;;
11334;SDS011;5722;42.620;23.374;2023-03-03T01:29:53;4.47;;;3.70;;
11334;SDS011;5722;42.620;23.374;2023-03-03T01:32:25;3.83;;;3.43;;
11334;SDS011;5722;42.620;23.374;2023-03-03T01:34:54;5.87;;;4.40;;
11334;SDS011;5722;42.620;23.374;2023-03-03T01:37:21;5.87;;;4.77;;
11334;SDS011;5722;42.620;23.374;2023-03-03T01:39:54;6.53;;;5.03;;
11334;SDS011;5722;42.620;23.374;2023-03-03T01:42:21;5.53;;;4.93;;
11334;SDS011;5722;42.620;23.374;2023-03-03T01:44:48;6.93;;;5.57;;
11334;SDS011;5722;42.620;23.374;2023-03-03T01:47:18;6.37;;;5.20;;
11334;SDS011;5722;42.620;23.374;2023-03-03T01:49:49;6.73;;;5.17;;
11334;SDS011;5722;42.620;23.374;2023-03-03T01:52:20;6.40;;;5.27;;
11334;SDS011;5722;42.620;23.374;2023-03-03T01:54:51;6.47;;;5.27;;
11334;SDS011;5722;42.620;23.374;2023-03-03T01:57:22;6.90;;;5.57;;
11334;SDS011;5722;42.620;23.374;2023-03-03T01:59:50;6.60;;;5.50;;
11334;SDS011;5722;42.620;23.374;2023-03-03T02:02:18;7.33;;;6.03;;
11334;SDS011;5722;42.620;23.374;2023-03-03T02:04:45;6.27;;;5.37;;
11334;SDS011;5722;42.620;23.374;2023-03-03T02:07:15;6.83;;;5.47;;
11334;SDS011;5722;42.620;23.374;2023-03-03T02:09:50;7.03;;;5.47;;
11334;SDS011;5722;42.620;23.374;2023-03-03T02:12:37;7.90;;;5.30;;
11334;SDS011;5722;42.620;23.374;2023-03-03T02:15:14;7.47;;;6.10;;
11334;SDS011;5722;42.620;23.374;2023-03-03T02:17:41;7.77;;;5.93;;
11334;SDS011;5722;42.620;23.374;2023-03-03T02:20:13;6.73;;;5.53;;
11334;SDS011;5722;42.620;23.374;2023-03-03T02:22:45;6.57;;;5.60;;
11334;SDS011;5722;42.620;23.374;2023-03-03T02:25:21;7.30;;;5.73;;
11334;SDS011;5722;42.620;23.374;2023-03-03T02:27:55;6.90;;;5.70;;
11334;SDS011;5722;42.620;23.374;2023-03-03T02:30:27;8.30;;;5.40;;
11334;SDS011;5722;42.620;23.374;2023-03-03T02:33:00;6.60;;;5.70;;
11334;SDS011;5722;42.620;23.374;2023-03-03T02:35:38;6.83;;;5.87;;
11334;SDS011;5722;42.620;23.374;2023-03-03T02:38:13;6.87;;;5.77;;
11334;SDS011;5722;42.620;23.374;2023-03-03T02:40:50;8.77;;;6.20;;
11334;SDS011;5722;42.620;23.374;2023-03-03T02:43:26;6.47;;;5.80;;
11334;SDS011;5722;42.620;23.374;2023-03-03T02:45:58;6.97;;;6.17;;
11334;SDS011;5722;42.620;23.374;2023-03-03T02:48:31;6.17;;;5.47;;
11334;SDS011;5722;42.620;23.374;2023-03-03T02:51:00;6.63;;;5.67;;
11334;SDS011;5722;42.620;23.374;2023-03-03T02:53:31;6.70;;;6.00;;
11334;SDS011;5722;42.620;23.374;2023-03-03T02:55:58;5.80;;;5.20;;
11334;SDS011;5722;42.620;23.374;2023-03-03T02:58:30;6.27;;;5.37;;
11334;SDS011;5722;42.620;23.374;2023-03-03T03:01:05;7.10;;;5.53;;
11334;SDS011;5722;42.620;23.374;2023-03-03T03:03:35;7.53;;;6.20;;
11334;SDS011;5722;42.620;23.374;2023-03-03T03:06:05;8.43;;;6.47;;
11334;SDS011;5722;42.620;23.374;2023-03-03T03:08:34;7.07;;;6.03;;
11334;SDS011;5722;42.620;23.374;2023-03-03T03:11:04;8.30;;;6.20;;
11334;SDS011;5722;42.620;23.374;2023-03-03T03:13:37;8.00;;;6.80;;
11334;SDS011;5722;42.620;23.374;2023-03-03T03:16:05;7.53;;;5.93;;
11334;SDS011;5722;42.620;23.374;2023-03-03T03:18:34;7.23;;;6.23;;
11334;SDS011;5722;42.620;23.374;2023-03-03T03:21:05;7.47;;;6.27;;
11334;SDS011;5722;42.620;23.374;2023-03-03T03:23:35;7.63;;;6.57;;
11334;SDS011;5722;42.620;23.374;2023-03-03T03:26:02;7.67;;;6.73;;
11334;SDS011;5722;42.620;23.374;2023-03-03T03:28:33;8.33;;;6.93;;
11334;SDS011;5722;42.620;23.374;2023-03-03T03:31:03;7.57;;;6.53;;
11334;SDS011;5722;42.620;23.374;2023-03-03T03:33:33;8.77;;;6.30;;
11334;SDS011;5722;42.620;23.374;2023-03-03T03:36:03;8.27;;;6.70;;
11334;SDS011;5722;42.620;23.374;2023-03-03T03:38:32;7.80;;;7.00;;
11334;SDS011;5722;42.620;23.374;2023-03-03T03:41:01;8.20;;;6.63;;
11334;SDS011;5722;42.620;23.374;2023-03-03T03:43:33;8.37;;;7.23;;
11334;SDS011;5722;42.620;23.374;2023-03-03T03:46:02;8.40;;;7.37;;
11334;SDS011;5722;42.620;23.374;2023-03-03T03:48:32;9.30;;;7.70;;
11334;SDS011;5722;42.620;23.374;2023-03-03T03:51:02;9.40;;;7.13;;
11334;SDS011;5722;42.620;23.374;2023-03-03T03:53:31;9.13;;;7.53;;
11334;SDS011;5722;42.620;23.374;2023-03-03T03:56:01;11.63;;;8.20;;
11334;SDS011;5722;42.620;23.374;2023-03-03T03:58:29;9.37;;;7.37;;
11334;SDS011;5722;42.620;23.374;2023-03-03T04:01:02;8.73;;;7.67;;
11334;SDS011;5722;42.620;23.374;2023-03-03T04:03:33;10.40;;;7.97;;
11334;SDS011;5722;42.620;23.374;2023-03-03T04:06:03;10.77;;;8.60;;
11334;SDS011;5722;42.620;23.374;2023-03-03T04:08:30;11.13;;;8.80;;
11334;SDS011;5722;42.620;23.374;2023-03-03T04:11:00;11.43;;;8.60;;
11334;SDS011;5722;42.620;23.374;2023-03-03T04:13:30;10.13;;;7.73;;
11334;SDS011;5722;42.620;23.374;2023-03-03T04:18:42;9.10;;;7.50;;
11334;SDS011;5722;42.620;23.374;2023-03-03T04:21:16;9.93;;;8.50;;
11334;SDS011;5722;42.620;23.374;2023-03-03T04:23:46;9.27;;;8.00;;
11334;SDS011;5722;42.620;23.374;2023-03-03T04:26:15;10.03;;;8.33;;
11334;SDS011;5722;42.620;23.374;2023-03-03T04:28:43;8.67;;;7.37;;
11334;SDS011;5722;42.620;23.374;2023-03-03T04:31:11;8.47;;;7.00;;
11334;SDS011;5722;42.620;23.374;2023-03-03T04:33:39;8.73;;;6.97;;
11334;SDS011;5722;42.620;23.374;2023-03-03T04:36:08;7.87;;;6.80;;
11334;SDS011;5722;42.620;23.374;2023-03-03T04:38:37;8.33;;;6.73;;
11334;SDS011;5722;42.620;23.374;2023-03-03T04:41:05;7.97;;;6.27;;
11334;SDS011;5722;42.620;23.374;2023-03-03T04:43:37;8.57;;;5.83;;
11334;SDS011;5722;42.620;23.374;2023-03-03T04:46:06;6.37;;;5.67;;
11334;SDS011;5722;42.620;23.374;2023-03-03T04:48:33;7.97;;;5.60;;
11334;SDS011;5722;42.620;23.374;2023-03-03T04:51:01;5.73;;;4.80;;
11334;SDS011;5722;42.620;23.374;2023-03-03T04:53:48;5.57;;;4.90;;
11334;SDS011;5722;42.620;23.374;2023-03-03T04:56:19;6.43;;;5.33;;
11334;SDS011;5722;42.620;23.374;2023-03-03T04:58:54;5.37;;;4.83;;
11334;SDS011;5722;42.620;23.374;2023-03-03T05:01:41;4.97;;;4.20;;
11334;SDS011;5722;42.620;23.374;2023-03-03T05:04:27;4.50;;;4.10;;
11334;SDS011;5722;42.620;23.374;2023-03-03T05:07:23;4.60;;;4.07;;
11334;SDS011;5722;42.620;23.374;2023-03-03T22:07:05;10.97;;;9.87;;
11334;SDS011;5722;42.620;23.374;2023-03-03T22:09:50;13.20;;;9.97;;
11334;SDS011;5722;42.620;23.374;2023-03-03T22:12:41;10.20;;;9.10;;
11334;SDS011;5722;42.620;23.374;2023-03-03T22:15:19;10.10;;;9.10;;
11334;SDS011;5722;42.620;23.374;2023-03-03T22:17:57;10.57;;;9.53;;
11334;SDS011;5722;42.620;23.374;2023-03-03T22:37:48;12.93;;;11.43;;
11334;SDS011;5722;42.620;23.374;2023-03-03T22:40:34;13.50;;;11.77;;
11334;SDS011;5722;42.620;23.374;2023-03-03T22:43:10;13.97;;;12.47;;
11334;SDS011;5722;42.620;23.374;2023-03-03T22:48:47;13.50;;;11.67;;
11334;SDS011;5722;42.620;23.374;2023-03-03T22:51:45;17.10;;;13.13;;
11334;SDS011;5722;42.620;23.374;2023-03-03T22:57:08;16.63;;;13.00;;
11334;SDS011;5722;42.620;23.374;2023-03-03T23:05:36;17.93;;;13.27;;
11334;SDS011;5722;42.620;23.374;2023-03-03T23:11:26;18.27;;;14.37;;
11334;SDS011;5722;42.620;23.374;2023-03-03T23:25:41;17.53;;;14.80;;
11334;SDS011;5722;42.620;23.374;2023-03-03T23:28:16;18.67;;;15.03;;
11334;SDS011;5722;42.620;23.374;2023-03-03T23:31:12;19.33;;;15.43;;
11334;SDS011;5722;42.620;23.374;2023-03-03T23:33:55;18.17;;;14.63;;
11334;SDS011;5722;42.620;23.374;2023-03-03T23:36:38;17.73;;;14.83;;
11334;SDS011;5722;42.620;23.374;2023-03-03T23:39:41;19.17;;;15.30;;
11334;SDS011;5722;42.620;23.374;2023-03-03T23:48:29;18.70;;;14.40;;
11334;SDS011;5722;42.620;23.374;2023-03-03T23:51:03;18.97;;;15.27;;
11334;SDS011;5722;42.620;23.374;2023-03-03T23:53:51;20.13;;;15.00;;
11334;SDS011;5722;42.620;23.374;2023-03-03T23:59:30;19.67;;;15.20;;
